Polar Endurance — WDG2085 — position and weather

sailwx.info

Track history (hours):
 
Tides and Currents Weather Stations Pressure Air Temp Water Temp Dewpoint Dewpoint Depression Visibility Wind Speed Wind Dir Waves Ship Positions

Polar Endurance

Owner: Dunlap Towing Co., LaConner, WA. More information available from US FCC via Universal Licensing System and Coast Guard Vessel Documentation Center.

Last reported at 2015-Jan-30 19:33 UTC. Time now 2015-Jan-30 20:10 UTC.
Position N 47°59' W 122°13'.

Length 37 m.

Type: Towing. MMSI: 303144000.

Date/timePositionNaut miles runAvg speedWind from/ knotsBaromVisibWave heightAir tempDewpointWater temp
2015-Jan-30 19:33N 47°59' W 122°13'0 0.0
2015-Jan-30 18:33N 47°59' W 122°13'0 0.0
2015-Jan-30 17:33N 47°59' W 122°13'  
2015-Jan-26 19:15N 47°59' W 122°13'6 8.4
2015-Jan-26 18:33N 47°55' W 122°20'711.9
2015-Jan-26 17:59N 47°49' W 122°24'612.9
2015-Jan-26 17:33N 47°44' W 122°26'112.3
2015-Jan-26 17:29N 47°43' W 122°26'8 8.5
2015-Jan-26 16:33N 47°36' W 122°22'0 1.4
2015-Jan-26 16:29N 47°36' W 122°22'6 6.5
2015-Jan-26 15:33N 47°40' W 122°29'1 9.9
2015-Jan-26 15:29N 47°40' W 122°28'1010.3
2015-Jan-26 14:33N 47°50' W 122°28'1 9.9
2015-Jan-26 14:29N 47°51' W 122°29'1010.3
2015-Jan-26 13:33N 47°59' W 122°37'1110.8
2015-Jan-26 12:33N 48°08' W 122°44'1510.3
2015-Jan-26 11:07N 48°12' W 123°05'6 9.6
2015-Jan-26 10:31N 48°12' W 123°13'6 8.8
2015-Jan-26 09:48N 48°12' W 123°23'2 8.4
2015-Jan-26 09:30N 48°12' W 123°27'9 9.1
2015-Jan-26 08:33N 48°12' W 123°40'9 9.0
2015-Jan-26 07:33N 48°13' W 123°53'9 9.3
2015-Jan-26 06:33N 48°16' W 124°06'8 8.3
2015-Jan-26 05:33N 48°19' W 124°18'10 9.6
2015-Jan-26 04:33N 48°23' W 124°31'9 9.1
2015-Jan-26 03:33N 48°27' W 124°43'10 7.8
2015-Jan-26 02:17N 48°23' W 124°57'7 9.7
2015-Jan-26 01:33N 48°17' W 125°02'30 9.6
2015-Jan-25 22:24N 47°48' W 125°15'11 9.8
2015-Jan-25 21:16N 47°38' W 125°09'7 9.7
2015-Jan-25 20:33N 47°32' W 125°04'510.2
2015-Jan-25 20:04N 47°27' W 125°02'5 9.7
2015-Jan-25 19:32N 47°22' W 124°58'9 9.5
2015-Jan-25 18:33N 47°14' W 124°53'21 9.8
2015-Jan-25 16:24N 46°53' W 124°46'12 9.8
2015-Jan-25 15:10N 46°41' W 124°42'9 9.6
2015-Jan-25 14:14N 46°33' W 124°38'6 9.4
2015-Jan-25 13:33N 46°27' W 124°34'9 9.5
2015-Jan-25 12:33N 46°20' W 124°26'9 9.3
2015-Jan-25 11:33N 46°13' W 124°16'7 7.2
2015-Jan-25 10:33N 46°15' W 124°06'5 4.9
2015-Jan-25 09:33N 46°14' W 123°59'8 7.9
2015-Jan-25 08:33N 46°12' W 123°48'1111.0
2015-Jan-25 07:33N 46°16' W 123°33'10 9.7
2015-Jan-25 06:33N 46°09' W 123°23'1211.8
2015-Jan-25 05:32N 46°10' W 123°05'1211.7
2015-Jan-25 04:33N 46°03' W 122°53'1111.1
2015-Jan-25 03:33N 45°52' W 122°47'1110.7
2015-Jan-25 02:33N 45°41' W 122°46'7 7.4
2015-Jan-25 01:33N 45°34' W 122°44'1 0.6
2015-Jan-25 00:33N 45°34' W 122°44'0 0.2
2015-Jan-24 22:14N 45°34' W 122°43'0 0.0
2015-Jan-24 21:32N 45°34' W 122°43'0 0.0
2015-Jan-24 20:29N 45°34' W 122°43'0 0.0
2015-Jan-24 19:20N 45°34' W 122°43'0 0.0
2015-Jan-24 18:14N 45°34' W 122°43'0 0.0
2015-Jan-24 17:26N 45°34' W 122°43'0 0.0
2015-Jan-24 16:32N 45°34' W 122°43'0 0.0
2015-Jan-24 15:29N 45°34' W 122°43'0 0.0
2015-Jan-24 14:32N 45°34' W 122°43'0 0.0
2015-Jan-24 13:32N 45°34' W 122°43'0 0.0
2015-Jan-24 12:20N 45°34' W 122°43'0 0.0
2015-Jan-24 11:32N 45°34' W 122°43'0 0.0
2015-Jan-24 10:32N 45°34' W 122°43'0 0.0
2015-Jan-24 09:32N 45°34' W 122°43'0 0.0
2015-Jan-24 08:19N 45°34' W 122°43'0 0.0
2015-Jan-24 07:22N 45°34' W 122°43'0 0.0
2015-Jan-24 06:28N 45°34' W 122°43'0 0.0
2015-Jan-24 05:31N 45°34' W 122°43'0 0.0
2015-Jan-24 04:31N 45°34' W 122°43'0 0.0
2015-Jan-24 03:19N 45°34' W 122°43'0 0.0
2015-Jan-24 02:31N 45°34' W 122°43'0 0.0
2015-Jan-24 01:19N 45°34' W 122°43'0 0.0
2015-Jan-24 00:13N 45°34' W 122°43'0 0.0
2015-Jan-23 23:19N 45°34' W 122°43'0 0.0
2015-Jan-23 22:31N 45°34' W 122°43'0 0.0
2015-Jan-23 21:04N 45°34' W 122°43'0 0.0
2015-Jan-23 20:25N 45°34' W 122°43'0 0.0
2015-Jan-23 19:31N 45°34' W 122°43'0 0.0
2015-Jan-23 18:16N 45°34' W 122°43'0 0.0
2015-Jan-23 17:22N 45°34' W 122°43'0 0.0
2015-Jan-23 16:19N 45°34' W 122°43'0 0.0
2015-Jan-23 15:25N 45°34' W 122°43'0 0.0
2015-Jan-23 14:19N 45°34' W 122°43'0 0.0
2015-Jan-23 13:31N 45°34' W 122°43'0 0.0
2015-Jan-23 12:07N 45°34' W 122°43'0 0.0
2015-Jan-23 11:19N 45°34' W 122°43'0 0.0
2015-Jan-23 10:31N 45°34' W 122°43'0 0.0
2015-Jan-23 09:07N 45°34' W 122°43'0 0.0
2015-Jan-23 08:31N 45°34' W 122°43'0 0.2
2015-Jan-23 07:33N 45°34' W 122°43'6 5.6
2015-Jan-23 06:33N 45°39' W 122°46'8 8.2
2015-Jan-23 05:33N 45°47' W 122°46'8 7.8
2015-Jan-23 04:33N 45°55' W 122°49'8 8.0
2015-Jan-23 03:32N 46°02' W 122°53'8 7.7
2015-Jan-23 02:33N 46°08' W 123°00'8 8.0
2015-Jan-23 01:33N 46°11' W 123°11'8 8.1
2015-Jan-23 00:33N 46°09' W 123°22'8 8.3
2015-Jan-22 23:33N 46°16' W 123°28'10 9.7
2015-Jan-22 22:33N 46°15' W 123°42'1010.2
2015-Jan-22 21:33N 46°12' W 123°56'7 7.5
2015-Jan-22 20:33N 46°14' W 124°06'6 6.4
2015-Jan-22 19:33N 46°13' W 124°15'8 7.9
2015-Jan-22 18:33N 46°18' W 124°23'9 9.0
2015-Jan-22 17:33N 46°25' W 124°32'10 9.3
2015-Jan-22 16:31N 46°34' W 124°38'2 8.9
2015-Jan-22 16:20N 46°35' W 124°39'7 8.7
2015-Jan-22 15:33N 46°42' W 124°42'9 8.9
2015-Jan-22 14:33N 46°50' W 124°45'83 8.2
2015-Jan-22 04:31N 48°12' W 125°04'9 9.3
2015-Jan-22 03:32N 48°21' W 124°60'9 9.1
2015-Jan-22 02:32N 48°27' W 124°50'1111.4
2015-Jan-22 01:33N 48°23' W 124°34'1111.0
2015-Jan-22 00:33N 48°19' W 124°19'10 9.9
2015-Jan-21 23:33N 48°14' W 124°06'7 9.7
2015-Jan-21 22:49N 48°12' W 123°56'1 9.3
2015-Jan-21 22:46N 48°11' W 123°55'2 9.0
2015-Jan-21 22:33N 48°11' W 123°52'10 9.8
2015-Jan-21 21:33N 48°11' W 123°38'10 9.6
2015-Jan-21 20:33N 48°11' W 123°23'10 9.5
2015-Jan-21 19:33N 48°13' W 123°09'2110.6
2015-Jan-21 17:32N 48°06' W 122°39'1012.0
2015-Jan-21 16:44N 47°57' W 122°32'211.6
2015-Jan-21 16:33N 47°56' W 122°30'211.5
2015-Jan-21 16:24N 47°54' W 122°28'910.3
2015-Jan-21 15:33N 47°46' W 122°26'1 9.5
2015-Jan-21 15:30N 47°45' W 122°26'8 9.0
2015-Jan-21 14:33N 47°37' W 122°24'1 9.1
2015-Jan-21 14:29N 47°36' W 122°24'1 1.5
2015-Jan-21 13:33N 47°35' W 122°22'0 0.2
2015-Jan-21 13:29N 47°35' W 122°22'2 2.7
2015-Jan-21 12:33N 47°37' W 122°24'1 8.0
2015-Jan-21 12:29N 47°38' W 122°25'8 8.4
2015-Jan-21 11:33N 47°45' W 122°25'0 0.0
2015-Jan-21 11:33N 47°45' W 122°25'9 8.6
2015-Jan-21 10:33N 47°54' W 122°21'8 7.5
2015-Jan-21 09:33N 47°59' W 122°13'0 0.0
2015-Jan-21 08:32N 47°59' W 122°13'0 0.0
2015-Jan-21 07:33N 47°59' W 122°13'0 0.0
2015-Jan-21 06:33N 47°59' W 122°13'0 0.0
2015-Jan-21 05:32N 47°59' W 122°13'0 0.0
2015-Jan-21 04:32N 47°59' W 122°13'0 0.0
2015-Jan-21 04:25N 47°59' W 122°13'0 0.0
2015-Jan-21 03:31N 47°59' W 122°13'0 0.0
2015-Jan-21 02:33N 47°59' W 122°13'0 0.0
2015-Jan-21 01:33N 47°59' W 122°13'0 0.0
2015-Jan-21 00:33N 47°59' W 122°13'0 0.0
2015-Jan-20 23:34N 47°59' W 122°13'0 0.0
2015-Jan-20 22:33N 47°59' W 122°13'0 0.0
2015-Jan-20 21:42N 47°59' W 122°13'0 0.0
2015-Jan-20 21:34N 47°59' W 122°13'0 0.0
2015-Jan-20 21:06N 47°59' W 122°13'0 0.0
2015-Jan-20 20:34N 47°59' W 122°13'0 0.0
2015-Jan-20 19:34N 47°59' W 122°13'  
Track history (hours):
 
Tides and Currents Weather Stations Pressure Air Temp Water Temp Dewpoint Dewpoint Depression Visibility Wind Speed Wind Dir Waves Ship Positions

Polar Endurance

Owner: Dunlap Towing Co., LaConner, WA. More information available from US FCC via Universal Licensing System and Coast Guard Vessel Documentation Center.

Last reported at 2015-Jan-30 19:33 UTC. Time now 2015-Jan-30 20:10 UTC.
Position N 47°59' W 122°13'.

Length 37 m.

Type: Towing. MMSI: 303144000.

Date/timePositionNaut miles runAvg speedWind from/ knotsBaromVisibWave heightAir tempDewpointWater temp
2015-Jan-30 19:33N 47°59' W 122°13'0 0.0
2015-Jan-30 18:33N 47°59' W 122°13'0 0.0
2015-Jan-30 17:33N 47°59' W 122°13'  
2015-Jan-26 19:15N 47°59' W 122°13'6 8.4
2015-Jan-26 18:33N 47°55' W 122°20'711.9
2015-Jan-26 17:59N 47°49' W 122°24'612.9
2015-Jan-26 17:33N 47°44' W 122°26'112.3
2015-Jan-26 17:29N 47°43' W 122°26'8 8.5
2015-Jan-26 16:33N 47°36' W 122°22'0 1.4
2015-Jan-26 16:29N 47°36' W 122°22'6 6.5
2015-Jan-26 15:33N 47°40' W 122°29'1 9.9
2015-Jan-26 15:29N 47°40' W 122°28'1010.3
2015-Jan-26 14:33N 47°50' W 122°28'1 9.9
2015-Jan-26 14:29N 47°51' W 122°29'1010.3
2015-Jan-26 13:33N 47°59' W 122°37'1110.8
2015-Jan-26 12:33N 48°08' W 122°44'1510.3
2015-Jan-26 11:07N 48°12' W 123°05'6 9.6
2015-Jan-26 10:31N 48°12' W 123°13'6 8.8
2015-Jan-26 09:48N 48°12' W 123°23'2 8.4
2015-Jan-26 09:30N 48°12' W 123°27'9 9.1
2015-Jan-26 08:33N 48°12' W 123°40'9 9.0
2015-Jan-26 07:33N 48°13' W 123°53'9 9.3
2015-Jan-26 06:33N 48°16' W 124°06'8 8.3
2015-Jan-26 05:33N 48°19' W 124°18'10 9.6
2015-Jan-26 04:33N 48°23' W 124°31'9 9.1
2015-Jan-26 03:33N 48°27' W 124°43'10 7.8
2015-Jan-26 02:17N 48°23' W 124°57'7 9.7
2015-Jan-26 01:33N 48°17' W 125°02'30 9.6
2015-Jan-25 22:24N 47°48' W 125°15'11 9.8
2015-Jan-25 21:16N 47°38' W 125°09'7 9.7
2015-Jan-25 20:33N 47°32' W 125°04'510.2
2015-Jan-25 20:04N 47°27' W 125°02'5 9.7
2015-Jan-25 19:32N 47°22' W 124°58'9 9.5
2015-Jan-25 18:33N 47°14' W 124°53'21 9.8
2015-Jan-25 16:24N 46°53' W 124°46'12 9.8
2015-Jan-25 15:10N 46°41' W 124°42'9 9.6
2015-Jan-25 14:14N 46°33' W 124°38'6 9.4
2015-Jan-25 13:33N 46°27' W 124°34'9 9.5
2015-Jan-25 12:33N 46°20' W 124°26'9 9.3
2015-Jan-25 11:33N 46°13' W 124°16'7 7.2
2015-Jan-25 10:33N 46°15' W 124°06'5 4.9
2015-Jan-25 09:33N 46°14' W 123°59'8 7.9
2015-Jan-25 08:33N 46°12' W 123°48'1111.0
2015-Jan-25 07:33N 46°16' W 123°33'10 9.7
2015-Jan-25 06:33N 46°09' W 123°23'1211.8
2015-Jan-25 05:32N 46°10' W 123°05'1211.7
2015-Jan-25 04:33N 46°03' W 122°53'1111.1
2015-Jan-25 03:33N 45°52' W 122°47'1110.7
2015-Jan-25 02:33N 45°41' W 122°46'7 7.4
2015-Jan-25 01:33N 45°34' W 122°44'1 0.6
2015-Jan-25 00:33N 45°34' W 122°44'0 0.2
2015-Jan-24 22:14N 45°34' W 122°43'0 0.0
2015-Jan-24 21:32N 45°34' W 122°43'0 0.0
2015-Jan-24 20:29N 45°34' W 122°43'0 0.0
2015-Jan-24 19:20N 45°34' W 122°43'0 0.0
2015-Jan-24 18:14N 45°34' W 122°43'0 0.0
2015-Jan-24 17:26N 45°34' W 122°43'0 0.0
2015-Jan-24 16:32N 45°34' W 122°43'0 0.0
2015-Jan-24 15:29N 45°34' W 122°43'0 0.0
2015-Jan-24 14:32N 45°34' W 122°43'0 0.0
2015-Jan-24 13:32N 45°34' W 122°43'0 0.0
2015-Jan-24 12:20N 45°34' W 122°43'0 0.0
2015-Jan-24 11:32N 45°34' W 122°43'0 0.0
2015-Jan-24 10:32N 45°34' W 122°43'0 0.0
2015-Jan-24 09:32N 45°34' W 122°43'0 0.0
2015-Jan-24 08:19N 45°34' W 122°43'0 0.0
2015-Jan-24 07:22N 45°34' W 122°43'0 0.0
2015-Jan-24 06:28N 45°34' W 122°43'0 0.0
2015-Jan-24 05:31N 45°34' W 122°43'0 0.0
2015-Jan-24 04:31N 45°34' W 122°43'0 0.0
2015-Jan-24 03:19N 45°34' W 122°43'0 0.0
2015-Jan-24 02:31N 45°34' W 122°43'0 0.0
2015-Jan-24 01:19N 45°34' W 122°43'0 0.0
2015-Jan-24 00:13N 45°34' W 122°43'0 0.0
2015-Jan-23 23:19N 45°34' W 122°43'0 0.0
2015-Jan-23 22:31N 45°34' W 122°43'0 0.0
2015-Jan-23 21:04N 45°34' W 122°43'0 0.0
2015-Jan-23 20:25N 45°34' W 122°43'0 0.0
2015-Jan-23 19:31N 45°34' W 122°43'0 0.0
2015-Jan-23 18:16N 45°34' W 122°43'0 0.0
2015-Jan-23 17:22N 45°34' W 122°43'0 0.0
2015-Jan-23 16:19N 45°34' W 122°43'0 0.0
2015-Jan-23 15:25N 45°34' W 122°43'0 0.0
2015-Jan-23 14:19N 45°34' W 122°43'0 0.0
2015-Jan-23 13:31N 45°34' W 122°43'0 0.0
2015-Jan-23 12:07N 45°34' W 122°43'0 0.0
2015-Jan-23 11:19N 45°34' W 122°43'0 0.0
2015-Jan-23 10:31N 45°34' W 122°43'0 0.0
2015-Jan-23 09:07N 45°34' W 122°43'0 0.0
2015-Jan-23 08:31N 45°34' W 122°43'0 0.2
2015-Jan-23 07:33N 45°34' W 122°43'6 5.6
2015-Jan-23 06:33N 45°39' W 122°46'8 8.2
2015-Jan-23 05:33N 45°47' W 122°46'8 7.8
2015-Jan-23 04:33N 45°55' W 122°49'8 8.0
2015-Jan-23 03:32N 46°02' W 122°53'8 7.7
2015-Jan-23 02:33N 46°08' W 123°00'8 8.0
2015-Jan-23 01:33N 46°11' W 123°11'8 8.1
2015-Jan-23 00:33N 46°09' W 123°22'8 8.3
2015-Jan-22 23:33N 46°16' W 123°28'10 9.7
2015-Jan-22 22:33N 46°15' W 123°42'1010.2
2015-Jan-22 21:33N 46°12' W 123°56'7 7.5
2015-Jan-22 20:33N 46°14' W 124°06'6 6.4
2015-Jan-22 19:33N 46°13' W 124°15'8 7.9
2015-Jan-22 18:33N 46°18' W 124°23'9 9.0
2015-Jan-22 17:33N 46°25' W 124°32'10 9.3
2015-Jan-22 16:31N 46°34' W 124°38'2 8.9
2015-Jan-22 16:20N 46°35' W 124°39'7 8.7
2015-Jan-22 15:33N 46°42' W 124°42'9 8.9
2015-Jan-22 14:33N 46°50' W 124°45'83 8.2
2015-Jan-22 04:31N 48°12' W 125°04'9 9.3
2015-Jan-22 03:32N 48°21' W 124°60'9 9.1
2015-Jan-22 02:32N 48°27' W 124°50'1111.4
2015-Jan-22 01:33N 48°23' W 124°34'1111.0
2015-Jan-22 00:33N 48°19' W 124°19'10 9.9
2015-Jan-21 23:33N 48°14' W 124°06'7 9.7
2015-Jan-21 22:49N 48°12' W 123°56'1 9.3
2015-Jan-21 22:46N 48°11' W 123°55'2 9.0
2015-Jan-21 22:33N 48°11' W 123°52'10 9.8
2015-Jan-21 21:33N 48°11' W 123°38'10 9.6
2015-Jan-21 20:33N 48°11' W 123°23'10 9.5
2015-Jan-21 19:33N 48°13' W 123°09'2110.6
2015-Jan-21 17:32N 48°06' W 122°39'1012.0
2015-Jan-21 16:44N 47°57' W 122°32'211.6
2015-Jan-21 16:33N 47°56' W 122°30'211.5
2015-Jan-21 16:24N 47°54' W 122°28'910.3
2015-Jan-21 15:33N 47°46' W 122°26'1 9.5
2015-Jan-21 15:30N 47°45' W 122°26'8 9.0
2015-Jan-21 14:33N 47°37' W 122°24'1 9.1
2015-Jan-21 14:29N 47°36' W 122°24'1 1.5
2015-Jan-21 13:33N 47°35' W 122°22'0 0.2
2015-Jan-21 13:29N 47°35' W 122°22'2 2.7
2015-Jan-21 12:33N 47°37' W 122°24'1 8.0
2015-Jan-21 12:29N 47°38' W 122°25'8 8.4
2015-Jan-21 11:33N 47°45' W 122°25'0 0.0
2015-Jan-21 11:33N 47°45' W 122°25'9 8.6
2015-Jan-21 10:33N 47°54' W 122°21'8 7.5
2015-Jan-21 09:33N 47°59' W 122°13'0 0.0
2015-Jan-21 08:32N 47°59' W 122°13'0 0.0
2015-Jan-21 07:33N 47°59' W 122°13'0 0.0
2015-Jan-21 06:33N 47°59' W 122°13'0 0.0
2015-Jan-21 05:32N 47°59' W 122°13'0 0.0
2015-Jan-21 04:32N 47°59' W 122°13'0 0.0
2015-Jan-21 04:25N 47°59' W 122°13'0 0.0
2015-Jan-21 03:31N 47°59' W 122°13'0 0.0
2015-Jan-21 02:33N 47°59' W 122°13'0 0.0
2015-Jan-21 01:33N 47°59' W 122°13'0 0.0
2015-Jan-21 00:33N 47°59' W 122°13'0 0.0
2015-Jan-20 23:34N 47°59' W 122°13'0 0.0
2015-Jan-20 22:33N 47°59' W 122°13'0 0.0
2015-Jan-20 21:42N 47°59' W 122°13'0 0.0
2015-Jan-20 21:34N 47°59' W 122°13'0 0.0
2015-Jan-20 21:06N 47°59' W 122°13'0 0.0
2015-Jan-20 20:34N 47°59' W 122°13'0 0.0
2015-Jan-20 19:34N 47°59' W 122°13'  

Dump ship's entire track history